Time;durP1;ratioP1;P1;durP2;ratioP2;P2;SDS_P1;SDS_P2;PMS_P1;PMS_P2;Temp;Humidity;BMP_temperature;BMP_pressure;BME280_temperature;BME280_humidity;BME280_pressure;Samples;Min_cycle;Max_cycle;Signal;HPM_P1;HPM_P2
2022/02/14 00:01:43;;;;;;;12.13;2.20;;;;;;;17.80;38.98;99895.53;5016576;28;20041;-64
2022/02/14 00:04:09;;;;;;;3.65;1.33;;;;;;;17.87;38.73;99892.81;5016441;28;20506;-65
2022/02/14 00:06:34;;;;;;;2.78;1.52;;;;;;;17.88;38.05;99883.69;5016550;28;20025;-65
2022/02/14 00:08:59;;;;;;;6.28;1.67;;;;;;;17.90;38.00;99890.56;5033962;28;20025;-65
2022/02/14 00:11:25;;;;;;;3.45;1.38;;;;;;;17.90;37.49;99889.72;5034026;28;20049;-65
2022/02/14 00:13:51;;;;;;;7.57;1.33;;;;;;;17.91;38.17;99897.66;5034177;28;20084;-65
2022/02/14 00:16:16;;;;;;;8.43;2.08;;;;;;;17.90;38.48;99876.19;5034154;28;20097;-64
2022/02/14 00:18:42;;;;;;;3.58;1.35;;;;;;;17.93;38.60;99873.06;5034017;28;20029;-65
2022/02/14 00:21:07;;;;;;;5.78;1.38;;;;;;;17.95;38.57;99866.41;5034284;28;20136;-65
2022/02/14 00:23:33;;;;;;;6.47;1.83;;;;;;;17.95;38.03;99865.59;5033654;28;20343;-66
2022/02/14 00:25:58;;;;;;;4.90;1.27;;;;;;;17.97;38.33;99868.94;4999762;28;20021;-65
2022/02/14 00:28:23;;;;;;;5.30;2.17;;;;;;;17.97;37.93;99864.34;5033710;28;20030;-65
2022/02/14 00:30:49;;;;;;;2.58;1.40;;;;;;;17.87;38.10;99836.78;5033868;28;20400;-65
2022/02/14 00:33:14;;;;;;;4.97;1.88;;;;;;;18.03;38.71;99858.09;5033997;28;20029;-65
2022/02/14 00:35:39;;;;;;;7.32;1.60;;;;;;;18.06;38.46;99856.06;5016238;28;20112;-65
2022/02/14 00:38:05;;;;;;;8.07;1.38;;;;;;;18.07;38.29;99868.56;5033738;28;20025;-64
2022/02/14 00:40:30;;;;;;;6.28;1.40;;;;;;;18.07;37.99;99847.72;5033821;28;20079;-64
2022/02/14 00:42:56;;;;;;;6.82;1.27;;;;;;;18.08;37.81;99848.56;5033606;28;20037;-65
2022/02/14 00:45:21;;;;;;;7.75;1.40;;;;;;;18.08;37.51;99838.56;5033933;28;20160;-65
2022/02/14 00:47:48;;;;;;;4.30;1.30;;;;;;;18.04;38.74;99821.84;5033485;28;20050;-65
2022/02/14 00:50:14;;;;;;;4.80;1.48;;;;;;;18.09;38.49;99823.13;4999414;28;20557;-64
2022/02/14 00:52:40;;;;;;;5.60;1.35;;;;;;;18.10;37.85;99822.06;5015959;28;20410;-65
2022/02/14 00:55:12;;;;;;;3.78;1.67;;;;;;;18.08;38.21;99813.31;5033674;28;20367;-65
2022/02/14 00:57:38;;;;;;;5.60;1.30;;;;;;;18.08;38.07;99810.59;5016033;28;20104;-65
2022/02/14 01:00:06;;;;;;;3.95;1.40;;;;;;;18.03;37.93;99808.50;5033609;28;20433;-65
2022/02/14 01:02:31;;;;;;;2.28;1.65;;;;;;;18.05;38.09;99817.28;5033459;28;20028;-65
2022/02/14 01:04:56;;;;;;;6.40;1.40;;;;;;;17.98;38.32;99790.13;5036823;28;20029;-65
2022/02/14 01:07:23;;;;;;;2.13;1.20;;;;;;;18.03;38.68;99814.75;5037250;28;20025;-65
2022/02/14 01:09:49;;;;;;;6.05;1.20;;;;;;;18.03;38.12;99806.63;5037612;28;20021;-65
2022/02/14 01:12:14;;;;;;;4.00;1.27;;;;;;;18.06;38.06;99796.44;5037322;28;20487;-65
2022/02/14 01:14:40;;;;;;;7.38;1.25;;;;;;;18.03;38.46;99794.97;5019402;28;20021;-64
2022/02/14 01:17:06;;;;;;;4.93;1.20;;;;;;;17.98;38.65;99795.56;5037125;28;20100;-65
2022/02/14 01:19:31;;;;;;;5.75;1.27;;;;;;;18.00;38.49;99796.22;5037263;28;20151;-65
2022/02/14 01:21:57;;;;;;;2.47;1.23;;;;;;;17.97;37.91;99788.47;5037154;28;20104;-65
2022/02/14 01:24:22;;;;;;;4.60;1.33;;;;;;;17.98;37.58;99789.28;5037183;28;20544;-64
2022/02/14 01:26:47;;;;;;;4.22;1.20;;;;;;;17.98;38.31;99811.81;5036908;28;20141;-65
2022/02/14 01:29:13;;;;;;;5.22;2.05;;;;;;;17.95;38.22;99795.16;5037191;28;20162;-64
2022/02/14 01:31:38;;;;;;;2.70;1.35;;;;;;;17.93;38.55;99791.78;5037025;28;20056;-65
2022/02/14 01:34:03;;;;;;;2.92;1.10;;;;;;;17.90;38.63;99776.75;5036742;28;20041;-65
2022/02/14 01:36:28;;;;;;;5.80;1.00;;;;;;;17.89;37.72;99774.28;5036926;28;20028;-65
2022/02/14 01:38:54;;;;;;;4.35;1.13;;;;;;;17.87;38.53;99774.44;5018834;28;20022;-64
2022/02/14 01:41:19;;;;;;;4.28;1.05;;;;;;;17.85;38.18;99773.81;5019225;28;20033;-65
2022/02/14 01:43:45;;;;;;;7.97;1.40;;;;;;;17.81;37.75;99758.19;5036446;28;20025;-65
2022/02/14 01:46:11;;;;;;;1.00;0.82;;;;;;;17.84;38.80;99772.16;5019014;28;20022;-65
2022/02/14 01:48:37;;;;;;;9.27;1.52;;;;;;;17.84;38.25;99761.31;5036903;28;20034;-65
2022/02/14 01:51:02;;;;;;;7.45;1.48;;;;;;;17.85;38.36;99762.16;5036846;28;20399;-65
2022/02/14 01:53:27;;;;;;;5.00;1.88;;;;;;;17.83;37.50;99751.53;5036510;28;20025;-65
2022/02/14 01:55:53;;;;;;;6.80;1.50;;;;;;;17.83;38.50;99743.41;5018824;28;20104;-65
2022/02/14 01:58:19;;;;;;;3.80;1.25;;;;;;;17.83;38.50;99745.28;5036779;28;20537;-64
2022/02/14 02:00:44;;;;;;;5.35;1.73;;;;;;;17.84;38.08;99742.34;5036435;28;20025;-64
2022/02/14 02:03:10;;;;;;;3.25;1.33;;;;;;;17.84;38.56;99739.63;5018606;28;20479;-65
2022/02/14 02:05:36;;;;;;;3.95;1.15;;;;;;;17.84;37.83;99755.91;5036501;28;20504;-65
2022/02/14 02:08:02;;;;;;;4.35;1.45;;;;;;;17.84;37.73;99733.38;5018607;28;20024;-65
2022/02/14 02:10:27;;;;;;;4.05;1.20;;;;;;;17.80;38.06;99716.72;5018910;28;20029;-65
2022/02/14 02:12:55;;;;;;;3.08;1.23;;;;;;;17.84;37.90;99728.81;5036527;28;20451;-65
2022/02/14 02:15:21;;;;;;;3.28;1.00;;;;;;;17.84;37.59;99717.97;5035672;28;20052;-65
2022/02/14 02:17:47;;;;;;;4.10;1.20;;;;;;;17.81;38.52;99715.66;5036223;28;20026;-65
2022/02/14 02:20:14;;;;;;;3.58;0.80;;;;;;;17.84;37.94;99701.72;5018580;28;20033;-64
2022/02/14 02:22:41;;;;;;;5.20;1.60;;;;;;;17.86;38.00;99715.06;5018305;28;20434;-65
2022/02/14 02:25:06;;;;;;;4.65;1.95;;;;;;;17.86;38.15;99705.06;5035904;28;20108;-64
2022/02/14 02:27:32;;;;;;;2.05;1.05;;;;;;;17.88;38.98;99697.56;5036178;28;20112;-64
2022/02/14 02:30:03;;;;;;;3.78;1.27;;;;;;;17.86;38.52;99696.94;5035673;28;20034;-65
2022/02/14 02:32:32;;;;;;;2.22;0.77;;;;;;;17.88;37.41;99708.41;5036091;28;20033;-65
2022/02/14 02:34:58;;;;;;;2.60;0.90;;;;;;;17.90;37.72;99700.06;5035689;28;20025;-65
2022/02/14 02:37:23;;;;;;;10.98;1.83;;;;;;;17.91;39.00;99683.59;5036100;28;20037;-64
2022/02/14 02:39:49;;;;;;;4.25;1.30;;;;;;;17.92;38.27;99685.25;5035925;28;20498;-64
2022/02/14 02:42:16;;;;;;;9.00;1.33;;;;;;;17.93;37.87;99695.06;5035621;28;20025;-65
2022/02/14 02:44:43;;;;;;;3.97;1.40;;;;;;;17.92;37.95;99704.22;5017823;28;20029;-65
2022/02/14 02:47:12;;;;;;;5.72;0.93;;;;;;;17.90;38.02;99676.50;5035578;28;20056;-65
2022/02/14 02:49:38;;;;;;;1.92;0.77;;;;;;;17.90;38.43;99679.22;5017688;28;20026;-64
2022/02/14 02:52:05;;;;;;;5.35;1.10;;;;;;;17.89;38.49;99665.88;5035520;28;20032;-64
2022/02/14 02:54:31;;;;;;;2.78;1.17;;;;;;;17.87;38.33;99663.38;5035684;28;20061;-65
2022/02/14 02:56:56;;;;;;;4.03;0.85;;;;;;;17.84;38.06;99668.34;5035648;28;20099;-65
2022/02/14 02:59:23;;;;;;;2.78;1.20;;;;;;;17.88;38.21;99656.94;5035435;28;20124;-65
2022/02/14 03:01:49;;;;;;;3.70;1.20;;;;;;;17.88;37.86;99659.63;5017265;28;20025;-64
2022/02/14 03:04:16;;;;;;;1.90;0.98;;;;;;;17.88;38.31;99654.22;5035224;28;20028;-64
2022/02/14 03:06:42;;;;;;;2.10;0.90;;;;;;;17.90;38.12;99654.84;5035311;28;20131;-65
2022/02/14 03:09:08;;;;;;;3.75;1.35;;;;;;;17.89;38.50;99649.63;5017769;28;20467;-65
2022/02/14 03:11:34;;;;;;;2.47;1.50;;;;;;;17.87;38.53;99648.97;5035178;28;20435;-64
2022/02/14 03:14:00;;;;;;;4.65;2.65;;;;;;;17.83;37.89;99640.44;5017689;28;20135;-65
2022/02/14 03:16:25;;;;;;;2.50;1.30;;;;;;;17.85;38.28;99653.78;5017272;28;20025;-65
2022/02/14 03:18:50;;;;;;;2.00;0.85;;;;;;;17.81;38.15;99652.53;5035059;28;20021;-65
2022/02/14 03:21:16;;;;;;;1.35;0.90;;;;;;;17.81;38.87;99664.19;5035046;28;20471;-65
2022/02/14 03:23:41;;;;;;;2.40;1.35;;;;;;;17.78;37.99;99655.66;5034892;28;20551;-64
2022/02/14 03:26:07;;;;;;;1.80;1.30;;;;;;;17.75;38.01;99647.94;5017007;28;20104;-66
2022/02/14 03:28:33;;;;;;;4.28;1.20;;;;;;;17.71;38.47;99642.09;5034213;28;20044;-65
2022/02/14 03:30:59;;;;;;;1.77;0.88;;;;;;;17.71;38.40;99642.09;5034785;28;20030;-65
2022/02/14 03:33:25;;;;;;;1.00;0.98;;;;;;;17.70;37.76;99656.66;5034788;28;20509;-65
2022/02/14 03:35:50;;;;;;;3.83;0.73;;;;;;;17.68;38.56;99644.34;5017233;28;20053;-65
2022/02/14 03:38:16;;;;;;;1.05;0.80;;;;;;;17.64;39.06;99646.66;5034557;28;20036;-64
2022/02/14 03:40:41;;;;;;;4.38;1.05;;;;;;;17.61;38.34;99647.06;5034565;28;20025;-64
2022/02/14 03:43:07;;;;;;;2.30;0.80;;;;;;;17.60;38.56;99650.78;5016752;28;20021;-64
2022/02/14 03:45:33;;;;;;;5.78;1.20;;;;;;;17.61;39.20;99641.66;5034442;28;20067;-65
2022/02/14 03:47:59;;;;;;;1.50;0.70;;;;;;;17.61;38.42;99633.53;5034323;28;20397;-65
2022/02/14 03:50:24;;;;;;;6.72;1.58;;;;;;;17.60;38.54;99650.78;5034469;28;20223;-65
2022/02/14 03:52:50;;;;;;;2.17;0.93;;;;;;;17.57;38.15;99626.81;5034244;28;20067;-65
2022/02/14 03:55:16;;;;;;;4.95;0.80;;;;;;;17.56;37.98;99633.28;5034178;28;20025;-65
2022/02/14 03:57:42;;;;;;;5.25;1.00;;;;;;;17.54;37.80;99629.94;5034255;28;20025;-65
2022/02/14 04:00:10;;;;;;;4.05;1.80;;;;;;;17.51;37.59;99627.59;5034156;28;20513;-65
2022/02/14 04:02:36;;;;;;;4.88;0.82;;;;;;;17.49;38.04;99621.56;5034157;28;20028;-65
2022/02/14 04:05:03;;;;;;;2.97;1.13;;;;;;;17.47;38.27;99618.22;5034114;28;20025;-65
2022/02/14 04:07:28;;;;;;;2.63;0.90;;;;;;;17.45;37.85;99609.47;5034115;28;20021;-65
2022/02/14 04:09:54;;;;;;;5.05;1.15;;;;;;;17.42;38.02;99615.28;5016786;28;20490;-64
2022/02/14 04:12:19;;;;;;;4.80;1.00;;;;;;;17.44;37.59;99602.41;5034050;28;20022;-65
2022/02/14 04:14:45;;;;;;;3.75;1.05;;;;;;;17.46;38.72;99601.16;5033991;28;20541;-64
2022/02/14 04:17:10;;;;;;;2.33;1.00;;;;;;;17.49;37.54;99605.31;5033913;28;20048;-65
2022/02/14 04:19:35;;;;;;;3.80;1.27;;;;;;;17.50;38.26;99592.63;5033652;28;20379;-64
2022/02/14 04:22:01;;;;;;;6.65;1.13;;;;;;;17.48;38.32;99587.41;5016357;28;20026;-64
2022/02/14 04:24:26;;;;;;;4.85;1.30;;;;;;;17.54;38.28;99586.63;5033837;28;20053;-64
2022/02/14 04:26:51;;;;;;;2.90;1.08;;;;;;;17.59;38.05;99589.53;5033871;28;20433;-66
2022/02/14 04:29:17;;;;;;;1.45;0.88;;;;;;;17.55;38.11;99580.16;5033999;28;20508;-65
2022/02/14 04:31:42;;;;;;;3.17;1.17;;;;;;;17.60;38.20;99587.66;5034136;28;20491;-65
2022/02/14 04:34:08;;;;;;;1.90;1.23;;;;;;;17.63;38.72;99589.97;5016211;28;20068;-65
2022/02/14 04:36:33;;;;;;;7.25;1.67;;;;;;;17.61;39.01;99579.34;5016225;28;20471;-65
2022/02/14 04:38:58;;;;;;;6.75;0.93;;;;;;;17.67;39.32;99592.06;5035903;28;20029;-65
2022/02/14 04:41:24;;;;;;;3.70;1.23;;;;;;;17.65;38.88;99583.31;5037998;28;20033;-64
2022/02/14 04:43:51;;;;;;;4.75;2.20;;;;;;;17.71;38.77;99590.63;5037708;28;20030;-65
2022/02/14 04:46:18;;;;;;;2.72;1.02;;;;;;;17.72;37.85;99584.16;5037569;28;20394;-64
2022/02/14 04:48:44;;;;;;;2.28;1.17;;;;;;;17.75;38.48;99594.59;5037884;28;20053;-64
2022/02/14 04:51:09;;;;;;;1.60;0.88;;;;;;;17.75;38.39;99600.00;5037929;28;20037;-65
2022/02/14 04:53:34;;;;;;;2.00;1.10;;;;;;;17.79;37.87;99603.97;5038059;28;20104;-65
2022/02/14 04:56:00;;;;;;;2.47;0.93;;;;;;;17.79;39.14;99598.53;5037689;28;20083;-65
2022/02/14 04:58:25;;;;;;;2.15;1.02;;;;;;;17.79;38.49;99614.81;5037539;28;20021;-65
2022/02/14 05:00:50;;;;;;;4.10;1.23;;;;;;;17.81;39.14;99601.06;5003581;28;20021;-64
2022/02/14 05:03:16;;;;;;;7.00;1.23;;;;;;;17.82;38.43;99611.69;5019561;28;20383;-65
2022/02/14 05:05:41;;;;;;;2.70;1.10;;;;;;;17.82;39.54;99611.69;5037694;28;20391;-65
2022/02/14 05:08:06;;;;;;;4.97;0.93;;;;;;;17.82;39.83;99611.69;5019859;28;20430;-65
2022/02/14 05:10:32;;;;;;;7.15;1.00;;;;;;;17.86;38.75;99604.81;5037553;28;20031;-65
2022/02/14 05:12:57;;;;;;;2.03;0.60;;;;;;;17.85;39.70;99605.00;5037373;28;20028;-65
2022/02/14 05:15:22;;;;;;;0.95;0.70;;;;;;;17.85;39.67;99600.44;5037231;28;20419;-64
2022/02/14 05:17:48;;;;;;;2.03;0.93;;;;;;;17.87;38.25;99597.50;5037294;28;20052;-65
2022/02/14 05:20:13;;;;;;;1.83;0.60;;;;;;;17.90;38.61;99608.78;5037241;28;20030;-65
2022/02/14 05:22:38;;;;;;;3.85;0.88;;;;;;;17.89;38.70;99601.72;5037194;28;20025;-65
2022/02/14 05:25:04;;;;;;;3.25;1.08;;;;;;;17.79;38.81;99589.56;5037333;28;20081;-65
2022/02/14 05:27:30;;;;;;;1.45;0.70;;;;;;;17.88;40.00;99600.03;5037108;28;20033;-65
2022/02/14 05:29:55;;;;;;;3.80;0.73;;;;;;;17.88;39.02;99605.44;5037411;28;20116;-65
2022/02/14 05:32:20;;;;;;;2.40;0.80;;;;;;;17.86;39.86;99602.13;5019805;28;20033;-65
2022/02/14 05:34:46;;;;;;;1.15;0.68;;;;;;;17.88;39.99;99610.88;5037015;28;20493;-64
2022/02/14 05:37:11;;;;;;;1.40;0.75;;;;;;;17.84;39.24;99593.34;5037016;28;20029;-65
2022/02/14 05:39:36;;;;;;;5.00;0.80;;;;;;;17.87;39.39;99603.75;5036923;28;20021;-64
2022/02/14 05:42:02;;;;;;;1.95;1.13;;;;;;;17.86;39.13;99602.13;5037154;28;20108;-64
2022/02/14 05:44:28;;;;;;;0.60;0.60;;;;;;;17.85;39.33;99605.84;5036690;28;20021;-65
2022/02/14 05:46:53;;;;;;;0.98;0.65;;;;;;;17.84;40.04;99604.19;5036633;28;20060;-64
2022/02/14 05:49:18;;;;;;;8.52;1.27;;;;;;;17.74;39.84;99592.91;5036382;28;20025;-65
2022/02/14 05:51:44;;;;;;;1.70;0.80;;;;;;;17.80;39.38;99608.34;5018314;28;20026;-65
2022/02/14 05:54:09;;;;;;;3.35;0.80;;;;;;;17.82;40.49;99605.41;5036575;28;20060;-65
2022/02/14 05:56:34;;;;;;;1.63;0.82;;;;;;;17.82;38.90;99598.13;5036661;28;20056;-65
2022/02/14 05:59:00;;;;;;;1.30;0.93;;;;;;;17.83;39.04;99609.81;5036513;28;20021;-65
2022/02/14 06:01:27;;;;;;;5.30;1.00;;;;;;;17.83;40.45;99597.09;5036436;28;20025;-65
2022/02/14 06:03:52;;;;;;;1.17;0.70;;;;;;;17.83;39.93;99597.09;5036257;28;20129;-65
2022/02/14 06:06:18;;;;;;;2.67;1.00;;;;;;;17.85;39.54;99599.59;5019197;28;20128;-65
2022/02/14 06:08:43;;;;;;;1.85;0.73;;;;;;;17.83;40.40;99596.25;5036261;28;20033;-65
2022/02/14 06:11:09;;;;;;;3.53;1.00;;;;;;;17.79;39.58;99595.84;5036394;28;20036;-65
2022/02/14 06:13:34;;;;;;;3.00;1.15;;;;;;;17.81;39.66;99601.88;5036203;28;20534;-65
2022/02/14 06:15:59;;;;;;;1.02;0.88;;;;;;;17.78;39.45;99605.00;5036226;28;20028;-65
2022/02/14 06:18:25;;;;;;;7.53;0.70;;;;;;;17.73;39.87;99596.66;5036510;28;20035;-65
2022/02/14 06:20:51;;;;;;;3.83;1.35;;;;;;;17.74;40.52;99592.91;5036273;28;20471;-65
2022/02/14 06:23:16;;;;;;;1.52;0.75;;;;;;;17.75;40.40;99594.59;5036185;28;20106;-65
2022/02/14 06:25:41;;;;;;;4.03;0.70;;;;;;;17.74;40.41;99594.78;5035870;28;20025;-65
2022/02/14 06:28:07;;;;;;;4.22;0.70;;;;;;;17.74;40.60;99620.00;5036169;28;20029;-65
2022/02/14 06:30:32;;;;;;;2.13;1.40;;;;;;;17.72;40.11;99610.41;5036406;28;20101;-65
2022/02/14 06:32:58;;;;;;;2.47;0.88;;;;;;;17.73;41.15;99615.63;5036482;28;20022;-65
2022/02/14 06:35:23;;;;;;;3.92;1.00;;;;;;;17.74;39.98;99609.16;5035986;28;20029;-65
2022/02/14 06:37:49;;;;;;;2.78;1.00;;;;;;;17.78;39.88;99613.13;5017973;28;20079;-65
2022/02/14 06:40:14;;;;;;;1.48;0.60;;;;;;;17.73;40.77;99607.50;5034991;28;20569;-65
2022/02/14 06:42:40;;;;;;;1.67;0.85;;;;;;;17.78;39.95;99631.28;5029089;28;20030;-65
2022/02/14 06:45:06;;;;;;;2.45;0.70;;;;;;;17.80;40.69;99635.44;5008443;28;20025;-65
2022/02/14 06:47:32;;;;;;;2.70;1.45;;;;;;;17.75;40.73;99610.84;5005556;28;20041;-65
2022/02/14 06:49:57;;;;;;;4.18;1.33;;;;;;;17.80;41.07;99619.19;5006440;28;20467;-65
2022/02/14 06:52:23;;;;;;;2.70;1.05;;;;;;;17.79;40.59;99633.75;5025222;28;20034;-65
2022/02/14 06:54:48;;;;;;;1.35;0.70;;;;;;;17.79;40.30;99644.59;5005556;28;20018;-65
2022/02/14 06:57:14;;;;;;;1.90;0.88;;;;;;;17.79;40.44;99644.59;5024652;28;20068;-65
2022/02/14 06:59:40;;;;;;;1.17;0.70;;;;;;;17.80;40.68;99646.28;5024390;28;20534;-65
2022/02/14 07:02:05;;;;;;;0.70;0.50;;;;;;;17.79;40.85;99649.19;5022751;28;20500;-65
2022/02/14 07:04:30;;;;;;;1.90;0.88;;;;;;;17.78;40.71;99653.75;5024878;28;20028;-64
2022/02/14 07:06:56;;;;;;;1.85;0.60;;;;;;;17.78;41.87;99656.47;5023285;28;20022;-64
2022/02/14 07:09:21;;;;;;;3.05;1.05;;;;;;;17.77;41.58;99671.06;5028893;28;20060;-66
2022/02/14 07:11:46;;;;;;;5.25;1.08;;;;;;;17.67;40.92;99638.09;5027584;28;20017;-65
2022/02/14 07:14:12;;;;;;;3.08;1.00;;;;;;;17.74;41.07;99668.75;4988863;28;20029;-65
2022/02/14 07:16:37;;;;;;;1.77;0.60;;;;;;;17.74;40.88;99662.50;5021396;28;20054;-65
2022/02/14 07:19:03;;;;;;;2.40;0.93;;;;;;;17.70;42.38;99675.59;5014845;28;20037;-65
2022/02/14 07:21:29;;;;;;;1.13;0.85;;;;;;;17.70;41.70;99680.22;5015213;28;20025;-64
2022/02/14 07:23:54;;;;;;;1.23;0.60;;;;;;;17.68;41.83;99669.56;4997291;28;20026;-64
2022/02/14 07:26:20;;;;;;;2.65;0.68;;;;;;;17.57;41.83;99651.19;4997429;28;20391;-64
2022/02/14 07:28:46;;;;;;;0.45;0.30;;;;;;;17.71;41.47;99669.16;5015391;28;20177;-64
2022/02/14 07:31:11;;;;;;;0.57;0.30;;;;;;;17.72;42.44;99683.56;5014799;28;20038;-65
2022/02/14 07:33:37;;;;;;;1.50;0.80;;;;;;;17.71;40.86;99679.16;4996951;28;20033;-65
2022/02/14 07:36:03;;;;;;;1.10;0.60;;;;;;;17.67;42.02;99673.31;4997321;28;20032;-64
2022/02/14 07:38:29;;;;;;;1.42;0.80;;;;;;;17.69;40.86;99684.78;5014957;28;20080;-64
2022/02/14 07:40:54;;;;;;;2.58;0.75;;;;;;;17.74;41.46;99689.59;5014690;28;20038;-65
2022/02/14 07:43:20;;;;;;;2.03;0.80;;;;;;;17.73;41.17;99687.91;5014281;28;20029;-65
2022/02/14 07:45:46;;;;;;;2.05;0.77;;;;;;;17.75;41.81;99686.69;4997266;28;20108;-64
2022/02/14 07:48:11;;;;;;;2.25;0.70;;;;;;;17.77;41.08;99695.44;4996856;28;20142;-65
2022/02/14 07:50:36;;;;;;;4.57;1.13;;;;;;;17.74;41.85;99700.44;4996626;28;20483;-65
2022/02/14 07:53:02;;;;;;;2.85;0.82;;;;;;;17.68;41.74;99698.53;5014366;28;20029;-65
2022/02/14 07:55:27;;;;;;;1.27;0.55;;;;;;;17.70;41.92;99710.81;5014254;28;20037;-65
2022/02/14 07:57:53;;;;;;;2.50;0.60;;;;;;;17.68;42.54;99712.91;4996647;28;20021;-65
2022/02/14 08:00:18;;;;;;;1.83;0.70;;;;;;;17.68;42.20;99712.91;5014315;28;20377;-64
2022/02/14 08:02:44;;;;;;;4.10;0.80;;;;;;;17.66;42.64;99714.16;4996753;28;20044;-65
2022/02/14 08:05:09;;;;;;;1.27;0.60;;;;;;;17.62;42.12;99708.28;5014183;28;20057;-65
2022/02/14 08:07:35;;;;;;;1.83;0.55;;;;;;;17.67;42.69;99727.47;5014223;28;20029;-65
2022/02/14 08:10:00;;;;;;;5.03;0.70;;;;;;;17.66;42.33;99725.81;5014152;28;20113;-65
2022/02/14 08:12:25;;;;;;;1.30;0.50;;;;;;;17.69;42.61;99725.41;5014383;28;20091;-65
2022/02/14 08:14:52;;;;;;;2.20;0.70;;;;;;;17.71;42.86;99723.34;5013658;28;20025;-65
2022/02/14 08:17:17;;;;;;;0.52;0.47;;;;;;;17.75;42.31;99729.19;5014049;28;20060;-65
2022/02/14 08:19:43;;;;;;;3.40;0.95;;;;;;;17.76;42.22;99728.13;5014054;28;20455;-65
2022/02/14 08:22:08;;;;;;;6.65;0.68;;;;;;;17.76;42.59;99747.09;4996964;28;20105;-64
2022/02/14 08:24:34;;;;;;;6.25;0.63;;;;;;;17.77;42.79;99744.22;5014015;28;20376;-64
2022/02/14 08:26:59;;;;;;;3.92;0.82;;;;;;;17.78;42.77;99747.75;5014439;28;20032;-64
2022/02/14 08:29:26;;;;;;;0.90;0.60;;;;;;;17.78;42.02;99755.88;5014338;28;20538;-65
2022/02/14 08:31:52;;;;;;;0.95;0.55;;;;;;;17.78;43.07;99753.19;5014042;28;20116;-65
2022/02/14 08:34:17;;;;;;;0.73;0.73;;;;;;;17.78;42.74;99751.28;4996100;28;20064;-65
2022/02/14 08:36:43;;;;;;;2.05;0.75;;;;;;;17.83;42.43;99770.50;5014113;28;20126;-65
2022/02/14 08:39:09;;;;;;;1.73;0.68;;;;;;;17.84;42.52;99766.72;5014215;28;20033;-65
2022/02/14 08:41:35;;;;;;;5.72;0.80;;;;;;;17.90;43.08;99778.63;4980642;28;20041;-65
2022/02/14 08:44:00;;;;;;;1.70;0.73;;;;;;;17.96;42.69;99767.84;5013698;28;20022;-65
2022/02/14 08:46:26;;;;;;;3.33;0.32;;;;;;;18.08;42.85;99775.38;5013473;28;20029;-65
2022/02/14 08:48:52;;;;;;;5.35;0.28;;;;;;;18.11;42.42;99777.69;5013880;28;20472;-65
2022/02/14 08:51:19;;;;;;;3.40;0.30;;;;;;;18.20;42.48;99795.44;4996280;28;20075;-64
2022/02/14 08:53:48;;;;;;;0.40;0.30;;;;;;;18.23;42.53;99797.75;4996084;28;20079;-64
2022/02/14 08:56:14;;;;;;;0.70;0.38;;;;;;;18.30;41.87;99782.31;5013879;28;20161;-65
2022/02/14 08:58:40;;;;;;;1.08;0.30;;;;;;;18.37;42.33;99797.56;4980022;28;20491;-65
2022/02/14 09:01:06;;;;;;;0.45;0.25;;;;;;;18.47;42.34;99799.91;5013519;28;20076;-65
2022/02/14 09:03:33;;;;;;;2.78;0.40;;;;;;;18.55;42.63;99803.28;5013867;28;20037;-65
2022/02/14 09:05:58;;;;;;;1.00;0.30;;;;;;;18.54;41.65;99800.75;5013925;28;20046;-65
2022/02/14 09:08:25;;;;;;;0.65;0.40;;;;;;;18.55;41.78;99811.41;5013708;28;20037;-65
2022/02/14 09:10:51;;;;;;;0.90;0.70;;;;;;;18.69;41.70;99825.00;5013890;28;20076;-65
2022/02/14 09:13:16;;;;;;;0.20;0.20;;;;;;;18.64;42.39;99811.22;5014059;28;20033;-65
2022/02/14 09:15:42;;;;;;;4.13;0.40;;;;;;;18.58;41.67;99823.72;4996483;28;20026;-65
2022/02/14 09:18:07;;;;;;;1.88;0.65;;;;;;;18.54;41.69;99838.72;5013442;28;20030;-65
2022/02/14 09:20:33;;;;;;;2.03;0.30;;;;;;;18.54;41.41;99845.00;4996266;28;20471;-65
2022/02/14 09:23:00;;;;;;;0.20;0.15;;;;;;;18.48;42.01;99853.94;5013632;28;20121;-65
2022/02/14 09:25:25;;;;;;;0.50;0.32;;;;;;;18.50;42.29;99845.63;5016296;28;20091;-65
2022/02/14 09:27:51;;;;;;;0.73;0.30;;;;;;;18.51;42.06;99855.41;5017260;28;20022;-65
2022/02/14 09:30:16;;;;;;;0.70;0.15;;;;;;;18.55;41.73;99864.81;4999881;28;20030;-65
2022/02/14 09:32:42;;;;;;;0.20;0.20;;;;;;;18.57;41.94;99865.44;4999786;28;20018;-65
2022/02/14 09:35:07;;;;;;;4.40;0.40;;;;;;;18.59;41.84;99861.50;5017104;28;20037;-65
2022/02/14 09:37:32;;;;;;;0.75;0.47;;;;;;;18.58;41.35;99867.97;4999538;28;20438;-65
2022/02/14 09:39:59;;;;;;;0.47;0.47;;;;;;;18.59;41.31;99868.81;5017330;28;20498;-65
2022/02/14 09:42:24;;;;;;;0.77;0.55;;;;;;;18.54;41.20;99865.84;5016914;28;20030;-65
2022/02/14 09:44:50;;;;;;;1.77;0.40;;;;;;;18.51;40.80;99860.84;4982982;28;20072;-65
2022/02/14 09:47:15;;;;;;;1.00;0.40;;;;;;;18.51;41.20;99883.38;4999236;28;20049;-65
2022/02/14 09:49:41;;;;;;;0.93;0.40;;;;;;;18.50;40.47;99886.31;5017037;28;20025;-65
2022/02/14 09:52:07;;;;;;;0.55;0.38;;;;;;;18.44;40.81;99870.81;4999329;28;20030;-65
2022/02/14 09:54:33;;;;;;;2.17;0.50;;;;;;;18.46;41.18;99882.28;5016657;28;20018;-65
2022/02/14 09:56:58;;;;;;;2.38;0.30;;;;;;;18.44;41.00;99876.22;5016671;28;20025;-65
2022/02/14 09:59:23;;;;;;;0.47;0.30;;;;;;;18.42;40.88;99884.59;4999267;28;20172;-65
2022/02/14 10:01:49;;;;;;;2.22;0.45;;;;;;;18.47;40.99;99884.81;5016622;28;20030;-65
2022/02/14 10:04:15;;;;;;;0.70;0.30;;;;;;;18.54;40.74;99892.97;4999032;28;20017;-65
2022/02/14 10:06:43;;;;;;;1.98;0.30;;;;;;;18.61;41.02;99885.72;5016950;28;20033;-65
2022/02/14 10:09:09;;;;;;;0.38;0.20;;;;;;;18.85;40.39;99900.59;4999096;28;20105;-65
2022/02/14 10:11:36;;;;;;;1.15;0.30;;;;;;;19.28;39.78;99890.22;5016689;28;20503;-65
2022/02/14 10:14:13;;;;;;;5.47;0.47;;;;;;;19.63;39.37;99906.13;5016996;28;20080;-65
2022/02/14 10:16:38;;;;;;;0.50;0.30;;;;;;;20.71;38.29;99912.75;4998996;28;20053;-65
2022/02/14 10:19:14;;;;;;;1.58;0.32;;;;;;;21.58;37.08;99901.09;4998718;28;20061;-65
2022/02/14 10:21:43;;;;;;;2.03;0.30;;;;;;;21.35;38.24;99901.69;4998605;28;20028;-65
2022/02/14 10:24:10;;;;;;;0.75;0.40;;;;;;;21.06;39.22;99910.44;5016023;28;20022;-65
2022/02/14 10:26:42;;;;;;;0.90;0.55;;;;;;;20.77;38.75;99912.69;5015946;28;20117;-65
2022/02/14 10:29:12;;;;;;;0.32;0.17;;;;;;;20.51;39.16;99920.16;5016318;28;20097;-65
2022/02/14 10:31:46;;;;;;;0.45;0.22;;;;;;;20.31;38.81;99936.56;4998668;28;20026;-65
2022/02/14 10:34:12;;;;;;;3.20;1.10;;;;;;;20.14;38.88;99941.59;5016262;28;20109;-65
2022/02/14 10:36:40;;;;;;;0.20;0.20;;;;;;;19.95;38.97;99933.47;5015466;28;20057;-65
2022/02/14 10:39:16;;;;;;;0.82;0.28;;;;;;;19.84;39.08;99947.72;4998942;28;20522;-65
2022/02/14 10:41:44;;;;;;;0.32;0.30;;;;;;;19.82;39.37;99955.25;5016261;28;20033;-65
2022/02/14 10:44:13;;;;;;;1.20;0.20;;;;;;;19.79;39.29;99947.50;4998723;28;20022;-65
2022/02/14 10:46:39;;;;;;;1.85;0.40;;;;;;;19.82;38.98;99961.50;5015673;28;20109;-65
2022/02/14 10:49:06;;;;;;;0.57;0.40;;;;;;;19.70;39.07;99960.47;5015992;28;20538;-65
2022/02/14 10:51:32;;;;;;;0.47;0.30;;;;;;;19.54;39.47;99955.47;5015972;28;20479;-65
2022/02/14 10:53:58;;;;;;;2.10;0.55;;;;;;;19.40;39.23;99972.78;5015859;28;20068;-65
2022/02/14 10:56:24;;;;;;;0.90;0.52;;;;;;;19.27;39.64;99964.56;5015827;28;20557;-64
2022/02/14 10:59:10;;;;;;;2.70;0.40;;;;;;;19.14;40.01;99971.66;5016119;28;20030;-64
2022/02/14 11:01:38;;;;;;;1.00;0.28;;;;;;;19.03;39.44;99974.97;5015706;28;20498;-64
2022/02/14 11:04:03;;;;;;;2.10;0.32;;;;;;;18.93;39.41;99993.50;5015568;28;20494;-64
2022/02/14 11:06:29;;;;;;;0.75;0.50;;;;;;;18.86;39.52;99989.94;5015380;28;20109;-65
2022/02/14 11:08:55;;;;;;;0.28;0.15;;;;;;;18.82;39.64;99985.97;4998155;28;20043;-65
2022/02/14 11:11:21;;;;;;;3.53;0.52;;;;;;;18.76;39.30;100000.34;5015326;28;20034;-65
2022/02/14 11:13:47;;;;;;;1.45;0.52;;;;;;;18.70;39.07;99993.03;4997866;28;20022;-64
2022/02/14 11:16:13;;;;;;;2.47;0.57;;;;;;;18.54;40.10;99977.91;4997868;28;20112;-65
2022/02/14 11:18:39;;;;;;;1.15;0.30;;;;;;;18.60;39.83;99996.09;5015556;28;20110;-65
2022/02/14 11:21:06;;;;;;;1.35;0.57;;;;;;;18.60;39.75;99993.38;4997963;28;20124;-65
2022/02/14 11:23:38;;;;;;;5.18;0.60;;;;;;;18.59;39.57;99994.41;4997670;28;20108;-65
2022/02/14 11:26:07;;;;;;;;;;;;;;;18.57;39.76;99990.22;4998094;28;20041;-65
2022/02/14 11:28:37;;;;;;;1.45;0.40;;;;;;;18.53;39.35;99999.81;4998237;28;20426;-65